Grand Forks Air Force Base
KRDR : now visible

Airfield :











YOU CAN JOIN US ON...

 
LOGIN :

Register | Disclaimer

   EN    FR    IT 

 









Legend :    VFR   Marginal VFR   IFR   Intensive IFR   Very Intensive IFR
Visi :
Ceiling :
>= 8 km
>= 3000ft
5 to 8 km
1000 to 3000 ft
1500m to 5 km
500 to 1000 ft
800 to 1500m
200 to 500 ft
< 800m
< 200 ft
Symbols :   Thunderstorms  Fog  Heavy snow  Heavy precipitations  Wind > 20 kt






- Airport Elevation : 913 ft


KRDR - Grand Forks Air Force Base

CURRENT METAR :
  • 271505Z AUTO 01006KT 10SM FEW018 OVC065 14/11 A2983 RMK AO2 SLP108 $

EXPIRED METARs :
  • 271455Z AUTO 02006KT 10SM BKN016 OVC065 14/11 A2982 RMK AO2 SLP104 60007 T01350107 52015 $
  • 271425Z AUTO 03006KT 10SM FEW010 BKN016 BKN065 OVC080 14/11 A2981 RMK AO2 CIG 016V065 SLP101 $
  • 271355Z AUTO 04005KT 10SM FEW007 SCT055 SCT075 BKN100 BKN110 14/11 A2980 RMK AO2 RAE02DZB02E16RAB34E44DZB44E48 SLP097 P0000 T01370114 $
  • 271334Z AUTO 05004KT 10SM -RA FEW006 BKN055 OVC070 13/11 A2979 RMK AO2 RAE02DZB02E16RAB34 SLP094 $
  • 271308Z AUTO 04003KT 10SM -DZ FEW006 SCT050 OVC070 13/11 A2979 RMK AO2 RAE02DZB02 SLP094 $
  • 271255Z AUTO 02004KT 10SM -RA FEW050 12/11 A2978 RMK AO2 SLP091 P0007 T01230112 $
  • 271155Z AUTO 00000KT 10SM -RA FEW003 BKN055 OVC070 12/11 A2977 RMK AO2 SLPNO P0009 60031 70031 T01180110 10142 20114 53010 $
  • 271119Z AUTO 22003KT 8SM -RA FEW005 OVC043 12/11 A2976 RMK AO2 SLP083 $
  • 271105Z AUTO 19005KT 10SM -RA SCT029 OVC040 12/11 A2976 RMK AO2 SLP083 $
  • 271055Z AUTO 19005KT 10SM -RA FEW006 BKN027 OVC034 12/11 A2975 RMK AO2 SLP080 P0011 T01220113 $

Expired Forecast.
KZMP FIR / North America



MET'MAP, your aeronautical weather chart ! - Copyright ORBIFLY December 2007 - Disclaimer

ORBIFLY MET'MAP TEAM :

Programming & Development : Alexandra Zaïnal
Original concept : Baudouin d'Aumeries
Technical & hardware support : Manuel Goepfert
Assistance : Marc-Olivier Méhu




SOURCES & CREDITS :

   NOAA       Earth
Advisory